createdAt,value
2023-03-06T00:01:08.945Z,67.36
2023-03-06T00:03:11.442Z,66.88
2023-03-06T00:05:15.460Z,67.47
2023-03-06T00:07:17.675Z,67.08
2023-03-06T00:09:20.015Z,66.98
2023-03-06T00:11:22.705Z,67.88
2023-03-06T00:13:26.950Z,67.29
2023-03-06T00:15:30.158Z,67.83
2023-03-06T00:17:32.677Z,67.05
2023-03-06T00:19:34.999Z,67.50
2023-03-06T00:21:37.774Z,67.39
2023-03-06T00:23:41.474Z,67.30
2023-03-06T00:25:45.818Z,67.43
2023-03-06T00:27:49.543Z,66.92
2023-03-06T00:29:56.946Z,67.17
2023-03-06T00:31:59.211Z,67.82
2023-03-06T00:34:02.894Z,67.48
2023-03-06T00:36:06.405Z,67.50
2023-03-06T00:38:12.785Z,67.73
2023-03-06T00:40:19.263Z,67.03
2023-03-06T00:42:22.120Z,67.47
2023-03-06T00:44:25.100Z,67.27
2023-03-06T00:46:27.328Z,66.97
2023-03-06T00:48:30.326Z,67.05
2023-03-06T00:50:32.999Z,66.86
2023-03-06T00:52:35.884Z,67.16
2023-03-06T00:54:38.560Z,67.26
2023-03-06T00:56:40.808Z,66.79
2023-03-06T00:58:43.263Z,66.86
2023-03-06T01:00:46.074Z,66.81
2023-03-06T01:02:48.525Z,66.56
2023-03-06T01:04:50.808Z,66.73
2023-03-06T01:06:53.398Z,66.73
2023-03-06T01:08:55.720Z,66.96
2023-03-06T01:11:00.963Z,66.97
2023-03-06T01:13:03.262Z,67.15
2023-03-06T01:15:06.301Z,67.30
2023-03-06T01:17:10.671Z,66.36
2023-03-06T01:19:13.016Z,67.01
2023-03-06T01:21:15.526Z,66.27
2023-03-06T01:23:17.886Z,67.25
2023-03-06T01:25:21.360Z,67.31
2023-03-06T01:27:26.334Z,66.58
2023-03-06T01:29:29.851Z,66.82
2023-03-06T01:31:32.769Z,66.59
2023-03-06T01:33:36.300Z,66.84
2023-03-06T01:35:39.667Z,66.65
2023-03-06T01:37:42.485Z,67.24
2023-03-06T01:39:45.033Z,66.24
2023-03-06T01:41:47.262Z,66.58
2023-03-06T01:43:50.025Z,66.37
2023-03-06T01:45:53.103Z,66.37
2023-03-06T01:47:55.661Z,66.91
2023-03-06T01:50:01.265Z,67.03
2023-03-06T01:52:09.174Z,67.26
2023-03-06T01:54:16.255Z,66.97
2023-03-06T01:56:19.332Z,66.94
2023-03-06T01:58:23.092Z,66.76
2023-03-06T02:00:28.685Z,66.80
2023-03-06T02:02:31.576Z,66.58
2023-03-06T02:04:34.788Z,67.40
2023-03-06T02:06:40.276Z,66.48
2023-03-06T02:08:42.749Z,66.39
2023-03-06T02:11:16.325Z,66.55
2023-03-06T02:13:18.928Z,66.27
2023-03-06T02:15:25.208Z,66.72
2023-03-06T02:17:30.678Z,66.17
2023-03-06T02:19:54.362Z,66.75
2023-03-06T02:21:56.793Z,66.15
2023-03-06T02:24:24.185Z,65.75
2023-03-06T02:26:28.350Z,66.50
2023-03-06T02:28:31.037Z,66.00
2023-03-06T02:30:35.797Z,66.55
2023-03-06T02:32:38.269Z,66.14
2023-03-06T02:34:40.498Z,66.20
2023-03-06T02:36:47.732Z,65.91
2023-03-06T02:38:51.767Z,65.48
2023-03-06T02:40:58.355Z,66.03
2023-03-06T02:43:05.921Z,65.09
2023-03-06T02:45:12.895Z,65.78
2023-03-06T02:47:16.269Z,65.57
2023-03-06T02:49:18.527Z,65.64
2023-03-06T02:51:21.081Z,65.64
2023-03-06T02:53:24.115Z,65.68
2023-03-06T02:55:27.116Z,66.11
2023-03-06T02:57:31.038Z,66.17
2023-03-06T02:59:35.490Z,66.86
2023-03-06T03:01:39.716Z,67.32
2023-03-06T03:03:42.433Z,66.49
2023-03-06T03:05:45.704Z,67.41
2023-03-06T03:07:58.189Z,67.26
2023-03-06T03:10:00.713Z,67.38
2023-03-06T03:12:08.091Z,67.49
2023-03-06T03:14:10.443Z,66.99
2023-03-06T03:16:15.890Z,67.37
2023-03-06T03:18:18.402Z,67.32
2023-03-06T03:20:22.509Z,67.39
2023-03-06T03:22:25.465Z,66.88
2023-03-06T03:24:27.770Z,67.13
2023-03-06T03:26:30.842Z,67.42
2023-03-06T03:28:42.543Z,67.64
2023-03-06T03:30:47.090Z,67.17
2023-03-06T03:32:49.439Z,67.42
2023-03-06T03:34:52.528Z,67.71
2023-03-06T03:36:55.334Z,67.95
2023-03-06T03:38:57.823Z,67.79
2023-03-06T03:41:04.397Z,67.72
2023-03-06T03:43:07.766Z,67.31
2023-03-06T03:45:11.401Z,67.83
2023-03-06T03:47:14.337Z,68.29
2023-03-06T03:49:17.204Z,67.65
2023-03-06T03:51:20.159Z,66.88
2023-03-06T03:53:26.949Z,67.58
2023-03-06T03:55:29.648Z,67.22
2023-03-06T03:57:32.602Z,67.48
2023-03-06T03:59:36.084Z,67.46
2023-03-06T04:02:05.374Z,67.71
2023-03-06T04:04:13.194Z,67.76
2023-03-06T04:06:17.594Z,68.55
2023-03-06T04:08:21.996Z,68.31
2023-03-06T04:10:25.444Z,68.88
2023-03-06T04:12:28.335Z,69.07
2023-03-06T04:14:31.576Z,68.96
2023-03-06T04:16:34.770Z,69.25
2023-03-06T04:18:37.277Z,69.06
2023-03-06T04:20:41.261Z,69.28
2023-03-06T04:22:43.707Z,69.25
2023-03-06T04:24:50.026Z,69.71
2023-03-06T04:26:53.686Z,69.45
2023-03-06T04:28:56.963Z,68.65
2023-03-06T04:31:00.216Z,69.13
2023-03-06T04:33:03.857Z,69.07
2023-03-06T04:35:06.609Z,69.06
2023-03-06T04:37:25.103Z,68.64
2023-03-06T04:39:28.589Z,68.97
2023-03-06T04:41:31.639Z,68.54
2023-03-06T04:43:34.264Z,67.82
2023-03-06T04:45:38.519Z,68.04
2023-03-06T04:47:41.580Z,67.96
2023-03-06T04:49:44.225Z,67.87
2023-03-06T04:51:46.430Z,67.09
2023-03-06T04:53:48.626Z,68.04
2023-03-06T04:55:51.021Z,67.91
2023-03-06T04:57:54.143Z,67.54
2023-03-06T04:59:56.441Z,68.03
2023-03-06T05:01:58.895Z,67.89
2023-03-06T05:04:01.568Z,67.15
2023-03-06T05:06:04.530Z,68.05
2023-03-06T05:08:07.606Z,67.71
2023-03-06T05:10:16.266Z,68.00
2023-03-06T05:12:18.623Z,68.33
2023-03-06T05:14:21.092Z,67.47
2023-03-06T05:16:23.852Z,67.92
2023-03-06T05:18:26.263Z,68.25
2023-03-06T05:20:32.554Z,68.14
2023-03-06T05:22:35.152Z,68.54
2023-03-06T05:24:37.882Z,68.73
2023-03-06T05:26:40.360Z,68.23
2023-03-06T05:28:42.748Z,68.25
2023-03-06T05:30:45.303Z,68.76
2023-03-06T05:32:48.437Z,69.01
2023-03-06T05:34:51.140Z,68.56
2023-03-06T05:36:53.641Z,68.83
2023-03-06T05:38:56.206Z,69.04
2023-03-06T05:40:58.691Z,69.27
2023-03-06T05:43:01.263Z,69.17
2023-03-06T05:45:04.742Z,69.15
2023-03-06T05:47:08.936Z,69.06
2023-03-06T05:49:12.150Z,69.39
2023-03-06T05:51:14.441Z,69.05
2023-03-06T05:53:16.872Z,68.81
2023-03-06T05:55:21.305Z,69.13
2023-03-06T05:57:24.885Z,68.97
2023-03-06T05:59:28.730Z,68.88
2023-03-06T06:01:31.485Z,69.03
2023-03-06T06:03:33.913Z,68.76
2023-03-06T06:05:40.243Z,69.07
2023-03-06T06:07:42.785Z,68.55
2023-03-06T06:09:46.511Z,68.88
2023-03-06T06:12:00.816Z,68.92
2023-03-06T06:14:03.230Z,68.84
2023-03-06T06:16:12.052Z,69.09
2023-03-06T06:18:14.919Z,68.60
2023-03-06T06:20:17.728Z,68.01
2023-03-06T06:22:20.131Z,68.61
2023-03-06T06:24:25.357Z,68.28
2023-03-06T06:26:28.072Z,68.33
2023-03-06T06:28:31.839Z,68.27
2023-03-06T06:30:34.772Z,68.09
2023-03-06T06:32:38.368Z,67.91
2023-03-06T06:34:41.154Z,67.82
2023-03-06T06:36:43.793Z,67.96
2023-03-06T06:38:47.061Z,67.51
2023-03-06T06:41:19.344Z,67.68
2023-03-06T06:43:12.599Z,67.11
2023-03-06T06:45:15.095Z,66.44
2023-03-06T06:47:22.898Z,66.36
2023-03-06T06:49:26.255Z,66.08
2023-03-06T06:51:32.646Z,66.71
2023-03-06T06:53:34.791Z,66.36
2023-03-06T06:55:37.976Z,66.70
2023-03-06T06:57:43.048Z,67.28
2023-03-06T06:59:45.857Z,66.76
2023-03-06T07:01:48.736Z,67.56
2023-03-06T07:03:51.781Z,67.10
2023-03-06T07:05:56.580Z,66.71
2023-03-06T07:07:59.162Z,66.85
2023-03-06T07:10:01.857Z,65.75
2023-03-06T07:12:04.287Z,66.42
2023-03-06T07:14:06.979Z,66.26
2023-03-06T07:16:09.970Z,65.77
2023-03-06T07:18:12.464Z,64.42
2023-03-06T07:20:16.347Z,65.07
2023-03-06T07:22:19.093Z,64.59
2023-03-06T07:24:21.533Z,64.10
2023-03-06T07:26:24.951Z,63.86
2023-03-06T07:28:27.411Z,64.39
2023-03-06T07:30:29.798Z,63.89
2023-03-06T07:32:32.136Z,64.09
2023-03-06T07:34:34.841Z,63.73
2023-03-06T07:36:37.327Z,62.63
2023-03-06T07:38:39.710Z,63.06
2023-03-06T07:40:42.544Z,62.50
2023-03-06T07:42:44.892Z,62.33
2023-03-06T07:44:51.335Z,62.89
2023-03-06T07:46:54.033Z,62.09
2023-03-06T07:48:58.928Z,61.97
2023-03-06T07:51:05.126Z,61.77
2023-03-06T07:53:08.163Z,60.91
2023-03-06T07:55:11.790Z,61.47
2023-03-06T07:57:14.654Z,61.69
2023-03-06T07:59:17.085Z,61.50
2023-03-06T08:01:24.506Z,60.43
2023-03-06T08:03:27.282Z,61.49
2023-03-06T08:05:30.259Z,60.64
2023-03-06T08:07:32.966Z,60.74
2023-03-06T08:09:36.344Z,60.28
2023-03-06T08:11:38.821Z,60.37
2023-03-06T08:13:41.960Z,59.60
2023-03-06T08:15:49.541Z,60.36
2023-03-06T08:17:53.226Z,60.16
2023-03-06T08:19:55.864Z,60.44
2023-03-06T08:21:58.161Z,60.04
2023-03-06T08:24:00.648Z,59.22
2023-03-06T08:26:06.350Z,59.26
2023-03-06T08:28:08.770Z,59.59
2023-03-06T08:30:12.778Z,60.41
2023-03-06T08:32:15.504Z,59.44
2023-03-06T08:34:20.950Z,59.33
2023-03-06T08:36:24.363Z,59.46
2023-03-06T08:38:26.830Z,58.95
2023-03-06T08:40:30.890Z,60.32
2023-03-06T08:42:33.322Z,58.94
2023-03-06T08:44:36.069Z,59.42
2023-03-06T08:46:38.696Z,58.50
2023-03-06T08:48:42.018Z,58.80
2023-03-06T08:50:44.840Z,57.72
2023-03-06T08:52:47.245Z,58.47
2023-03-06T08:54:49.977Z,58.38
2023-03-06T08:56:54.408Z,58.13
2023-03-06T08:58:58.972Z,57.19
2023-03-06T09:01:01.445Z,58.38
2023-03-06T09:03:05.026Z,56.99
2023-03-06T09:05:09.214Z,57.29
2023-03-06T09:07:11.566Z,57.37
2023-03-06T09:09:14.624Z,58.07
2023-03-06T09:11:17.088Z,56.72
2023-03-06T09:13:19.997Z,56.93
2023-03-06T09:15:23.985Z,57.66
2023-03-06T09:17:26.519Z,57.13
2023-03-06T09:19:29.727Z,57.57
2023-03-06T09:21:32.440Z,57.33
2023-03-06T09:23:36.100Z,58.24
2023-03-06T09:25:38.681Z,58.48
2023-03-06T09:27:41.616Z,57.36
2023-03-06T09:29:44.093Z,57.11
2023-03-06T09:31:46.506Z,56.35
2023-03-06T09:33:48.833Z,55.70
2023-03-06T09:35:57.536Z,56.43
2023-03-06T09:38:00.116Z,57.13
2023-03-06T09:40:05.286Z,57.71
2023-03-06T09:42:09.264Z,56.56
2023-03-06T09:44:16.889Z,55.39
2023-03-06T09:46:33.341Z,55.37
2023-03-06T09:48:59.161Z,54.94
2023-03-06T09:51:39.751Z,54.70
2023-03-06T09:54:15.339Z,55.26
2023-03-06T09:56:23.732Z,55.00
2023-03-06T09:58:30.590Z,54.32
2023-03-06T10:01:04.937Z,53.59
2023-03-06T10:03:36.609Z,52.07
2023-03-06T10:05:44.317Z,52.74
2023-03-06T10:07:53.388Z,51.65
2023-03-06T10:10:03.334Z,49.76
2023-03-06T10:12:19.434Z,51.64
2023-03-06T10:14:46.511Z,51.59
2023-03-06T10:16:51.138Z,52.61
2023-03-06T10:18:56.880Z,50.70
2023-03-06T10:21:18.774Z,48.98
2023-03-06T10:23:45.857Z,49.04
2023-03-06T10:26:02.340Z,47.84
2023-03-06T10:28:18.548Z,49.71
2023-03-06T10:30:58.529Z,49.36
2023-03-06T10:33:27.152Z,47.26
2023-03-06T10:35:40.761Z,48.80
2023-03-06T10:37:43.577Z,48.09
2023-03-06T10:39:46.867Z,47.92
2023-03-06T10:41:50.391Z,48.52
2023-03-06T10:44:02.372Z,47.47
2023-03-06T10:46:06.646Z,48.82
2023-03-06T10:48:12.385Z,50.20
2023-03-06T10:50:25.483Z,49.42
2023-03-06T10:52:35.127Z,50.11
2023-03-06T10:54:40.554Z,50.83
2023-03-06T10:56:44.574Z,52.33
2023-03-06T10:58:46.978Z,52.75
2023-03-06T11:01:19.874Z,52.48
2023-03-06T11:03:25.169Z,52.46
2023-03-06T11:05:27.957Z,52.13
2023-03-06T11:07:32.980Z,52.07
2023-03-06T11:09:36.693Z,51.83
2023-03-06T11:11:39.071Z,53.21
2023-03-06T11:13:44.586Z,51.03
2023-03-06T11:16:07.632Z,50.71
2023-03-06T11:18:09.972Z,49.79
2023-03-06T11:20:20.379Z,51.17
2023-03-06T11:22:23.212Z,50.75
2023-03-06T11:24:26.122Z,50.89
2023-03-06T11:26:35.013Z,50.90
2023-03-06T11:29:02.041Z,51.59
2023-03-06T11:31:09.018Z,50.60
2023-03-06T11:33:28.886Z,52.19
2023-03-06T11:35:38.816Z,48.86
2023-03-06T11:37:57.952Z,50.28
2023-03-06T11:40:36.257Z,48.15
2023-03-06T11:42:50.192Z,46.17
2023-03-06T11:45:03.045Z,46.74
2023-03-06T11:47:20.109Z,46.50
2023-03-06T11:49:33.489Z,45.28
2023-03-06T11:51:42.923Z,45.85
2023-03-06T11:53:45.650Z,45.04
2023-03-06T11:56:04.008Z,46.58
2023-03-06T11:58:12.808Z,46.45
2023-03-06T12:00:27.800Z,43.77
2023-03-06T12:02:43.244Z,42.75
2023-03-06T12:05:05.361Z,44.65
2023-03-06T12:07:37.566Z,43.64
2023-03-06T12:09:49.785Z,42.40
2023-03-06T12:12:29.952Z,41.21
2023-03-06T12:14:43.644Z,42.07
2023-03-06T12:17:28.977Z,41.72
2023-03-06T12:20:00.563Z,41.29
2023-03-06T12:22:24.904Z,40.65
2023-03-06T12:25:17.806Z,41.39
2023-03-06T12:27:47.871Z,42.65
2023-03-06T12:30:28.481Z,41.80
2023-03-06T12:32:52.712Z,40.64
2023-03-06T12:35:21.460Z,40.43
2023-03-06T12:37:56.204Z,41.89
2023-03-06T12:40:19.742Z,42.26
2023-03-06T12:42:41.179Z,42.69
2023-03-06T12:44:49.640Z,41.52
2023-03-06T12:47:03.072Z,41.92
2023-03-06T12:49:32.895Z,43.70
2023-03-06T12:51:36.469Z,41.85
2023-03-06T12:53:41.314Z,41.98
2023-03-06T12:55:49.484Z,43.86
2023-03-06T12:57:53.123Z,44.30
2023-03-06T12:59:56.136Z,43.81
2023-03-06T13:02:09.036Z,43.36
2023-03-06T13:04:52.973Z,44.06
2023-03-06T13:07:15.797Z,44.89
2023-03-06T13:09:26.703Z,45.50
2023-03-06T13:11:50.332Z,45.86
2023-03-06T13:13:53.994Z,46.72
2023-03-06T13:16:02.453Z,46.86
2023-03-06T13:18:22.962Z,46.24
2023-03-06T13:20:39.576Z,46.72
2023-03-06T13:22:47.157Z,46.46
2023-03-06T13:25:30.702Z,48.08
2023-03-06T13:27:54.963Z,47.64
2023-03-06T13:30:06.475Z,47.91
2023-03-06T13:32:14.844Z,47.36
2023-03-06T13:34:39.150Z,48.06
2023-03-06T13:36:41.944Z,47.35
2023-03-06T13:38:44.364Z,47.33
2023-03-06T13:40:47.018Z,48.19
2023-03-06T13:42:52.358Z,47.44
2023-03-06T13:44:56.831Z,47.37
2023-03-06T13:47:02.898Z,48.03
2023-03-06T13:49:08.165Z,47.24
2023-03-06T13:51:25.705Z,48.18
2023-03-06T13:53:46.930Z,50.72
2023-03-06T13:56:21.333Z,52.01
2023-03-06T13:58:32.534Z,52.79
2023-03-06T14:01:13.784Z,53.01
2023-03-06T14:03:35.064Z,54.70
2023-03-06T14:05:47.369Z,54.04
2023-03-06T14:08:24.418Z,54.72
2023-03-06T14:10:27.105Z,55.07
2023-03-06T14:12:36.071Z,55.12
2023-03-06T14:14:43.464Z,54.59
2023-03-06T14:16:51.001Z,55.27
2023-03-06T14:18:59.403Z,54.38
2023-03-06T14:21:05.054Z,54.48
2023-03-06T14:23:42.791Z,54.00
2023-03-06T14:25:46.763Z,53.61
2023-03-06T14:27:53.555Z,54.29
2023-03-06T14:30:09.118Z,53.23
2023-03-06T14:32:12.544Z,53.71
2023-03-06T14:34:17.777Z,53.20
2023-03-06T14:36:23.955Z,54.02
2023-03-06T14:38:28.792Z,53.03
2023-03-06T14:40:36.580Z,53.09
2023-03-06T14:42:39.109Z,53.47
2023-03-06T14:44:41.948Z,53.59
2023-03-06T14:46:46.979Z,52.39
2023-03-06T14:48:50.290Z,52.98
2023-03-06T14:50:56.474Z,53.12
2023-03-06T14:53:04.552Z,53.67
2023-03-06T14:55:16.264Z,54.14
2023-03-06T14:57:22.347Z,53.62
2023-03-06T14:59:28.871Z,53.52
2023-03-06T15:01:41.341Z,53.99
2023-03-06T15:03:48.937Z,54.32
2023-03-06T15:05:52.530Z,53.97
2023-03-06T15:08:01.426Z,54.27
2023-03-06T15:10:06.844Z,54.34
2023-03-06T15:12:21.698Z,54.19
2023-03-06T15:14:33.994Z,54.32
2023-03-06T15:16:36.585Z,54.63
2023-03-06T15:19:05.159Z,54.29
2023-03-06T15:21:10.650Z,54.16
2023-03-06T15:23:34.733Z,53.53
2023-03-06T15:25:37.378Z,54.25
2023-03-06T15:27:39.921Z,53.64
2023-03-06T15:29:42.371Z,53.92
2023-03-06T15:31:46.476Z,54.12
2023-03-06T15:34:06.889Z,53.49
2023-03-06T15:36:31.747Z,53.97
2023-03-06T15:38:42.221Z,53.57
2023-03-06T15:40:58.663Z,53.45
2023-03-06T15:43:01.868Z,54.08
2023-03-06T15:45:16.347Z,53.89
2023-03-06T15:47:19.447Z,54.13
2023-03-06T15:49:22.330Z,53.97
2023-03-06T15:51:25.860Z,54.10
2023-03-06T15:53:28.844Z,54.26
2023-03-06T15:55:32.916Z,53.66
2023-03-06T15:57:35.387Z,53.83
2023-03-06T15:59:43.604Z,54.12
2023-03-06T16:01:46.118Z,54.52
2023-03-06T16:03:49.836Z,53.85
2023-03-06T16:05:52.380Z,53.15
2023-03-06T16:07:55.789Z,53.60
2023-03-06T16:09:58.156Z,52.86
2023-03-06T16:12:00.759Z,53.15
2023-03-06T16:14:04.224Z,52.94
2023-03-06T16:16:07.660Z,53.44
2023-03-06T16:18:12.517Z,52.42
2023-03-06T16:20:20.444Z,53.05
2023-03-06T16:22:22.822Z,53.70
2023-03-06T16:24:27.021Z,52.89
2023-03-06T16:26:34.994Z,53.89
2023-03-06T16:28:40.930Z,54.27
2023-03-06T16:30:44.771Z,53.96
2023-03-06T16:32:47.684Z,54.81
2023-03-06T16:34:50.169Z,53.37
2023-03-06T16:36:53.011Z,54.12
2023-03-06T16:38:55.524Z,54.98
2023-03-06T16:40:57.894Z,54.81
2023-03-06T16:43:00.656Z,53.95
2023-03-06T16:45:03.486Z,54.63
2023-03-06T16:47:05.921Z,55.40
2023-03-06T16:49:14.060Z,55.61
2023-03-06T16:51:19.874Z,56.11
2023-03-06T16:53:22.336Z,55.84
2023-03-06T16:55:27.166Z,56.15
2023-03-06T16:57:35.806Z,57.28
2023-03-06T16:59:38.294Z,56.74
2023-03-06T17:01:43.517Z,57.24
2023-03-06T17:03:46.898Z,56.59
2023-03-06T17:05:49.375Z,56.53
2023-03-06T17:07:52.233Z,56.67
2023-03-06T17:09:54.812Z,57.19
2023-03-06T17:11:57.245Z,57.02
2023-03-06T17:13:59.614Z,57.12
2023-03-06T17:16:02.444Z,58.06
2023-03-06T17:18:05.505Z,57.99
2023-03-06T17:20:09.215Z,57.40
2023-03-06T17:22:11.733Z,57.61
2023-03-06T17:24:14.227Z,58.32
2023-03-06T17:26:19.320Z,58.03
2023-03-06T17:28:22.164Z,57.79
2023-03-06T17:30:24.741Z,57.48
2023-03-06T17:32:28.822Z,57.23
2023-03-06T17:34:31.253Z,58.08
2023-03-06T17:36:33.794Z,57.54
2023-03-06T17:38:37.200Z,57.84
2023-03-06T17:40:39.496Z,57.87
2023-03-06T17:42:42.505Z,57.90
2023-03-06T17:44:45.149Z,57.63
2023-03-06T17:46:47.782Z,57.98
2023-03-06T17:48:50.282Z,58.16
2023-03-06T17:50:56.777Z,58.39
2023-03-06T17:52:59.451Z,57.48
2023-03-06T17:55:02.064Z,58.47
2023-03-06T17:57:06.005Z,58.29
2023-03-06T17:59:09.172Z,58.14
2023-03-06T18:01:17.865Z,57.74
2023-03-06T18:03:20.457Z,58.30
2023-03-06T18:05:23.154Z,58.62
2023-03-06T18:07:25.768Z,58.50
2023-03-06T18:09:28.355Z,58.47
2023-03-06T18:11:32.058Z,58.66
2023-03-06T18:13:36.677Z,58.95
2023-03-06T18:15:41.148Z,59.11
2023-03-06T18:17:43.661Z,60.06
2023-03-06T18:19:46.318Z,60.44
2023-03-06T18:21:48.887Z,60.44
2023-03-06T18:23:51.834Z,61.48
2023-03-06T18:26:08.288Z,61.01
2023-03-06T18:28:13.757Z,61.62
2023-03-06T18:30:16.773Z,60.92
2023-03-06T18:32:19.416Z,60.91
2023-03-06T18:34:22.406Z,60.87
2023-03-06T18:36:28.155Z,60.34
2023-03-06T18:38:31.326Z,60.17
2023-03-06T18:40:34.346Z,60.60
2023-03-06T18:42:37.194Z,60.58
2023-03-06T18:44:39.704Z,60.76
2023-03-06T18:46:42.753Z,61.41
2023-03-06T18:48:45.383Z,61.46
2023-03-06T18:50:48.182Z,61.82
2023-03-06T18:52:50.802Z,61.10
2023-03-06T18:54:53.887Z,61.47
2023-03-06T18:56:56.547Z,61.22
2023-03-06T18:59:07.674Z,61.53
2023-03-06T19:01:10.711Z,61.12
2023-03-06T19:03:13.610Z,61.65
2023-03-06T19:05:17.755Z,61.54
2023-03-06T19:07:20.224Z,61.66
2023-03-06T19:09:22.688Z,61.09
2023-03-06T19:11:27.326Z,60.99
2023-03-06T19:13:30.858Z,61.53
2023-03-06T19:15:34.210Z,61.50
2023-03-06T19:17:38.011Z,61.77
2023-03-06T19:19:40.831Z,61.05
2023-03-06T19:21:43.448Z,61.81
2023-03-06T19:23:46.789Z,62.70
2023-03-06T19:25:56.909Z,62.77
2023-03-06T19:28:00.337Z,62.80
2023-03-06T19:30:03.071Z,61.89
2023-03-06T19:32:06.114Z,62.17
2023-03-06T19:34:08.858Z,61.84
2023-03-06T19:36:14.388Z,62.46
2023-03-06T19:38:16.994Z,62.47
2023-03-06T19:40:20.410Z,62.64
2023-03-06T19:42:23.067Z,62.05
2023-03-06T19:44:25.787Z,62.27
2023-03-06T19:46:28.522Z,62.02
2023-03-06T19:48:30.912Z,62.00
2023-03-06T19:50:34.797Z,62.79
2023-03-06T19:52:39.577Z,62.86
2023-03-06T19:54:41.891Z,62.89
2023-03-06T19:56:44.325Z,62.24
2023-03-06T19:58:47.819Z,62.53
2023-03-06T20:00:50.461Z,62.69
2023-03-06T20:02:53.446Z,62.71
2023-03-06T20:04:55.905Z,63.19
2023-03-06T20:07:00.044Z,63.26
2023-03-06T20:09:05.686Z,63.26
2023-03-06T20:11:22.850Z,62.15
2023-03-06T20:13:25.313Z,62.63
2023-03-06T20:15:28.430Z,62.80
2023-03-06T20:17:34.080Z,62.54
2023-03-06T20:19:37.152Z,62.64
2023-03-06T20:21:40.002Z,63.34
2023-03-06T20:23:43.700Z,62.60
2023-03-06T20:25:46.254Z,62.81
2023-03-06T20:27:49.173Z,62.84
2023-03-06T20:29:51.809Z,63.53
2023-03-06T20:31:55.849Z,63.40
2023-03-06T20:33:59.828Z,62.93
2023-03-06T20:36:02.869Z,63.17
2023-03-06T20:38:05.428Z,63.63
2023-03-06T20:40:08.947Z,63.20
2023-03-06T20:42:11.939Z,63.46
2023-03-06T20:44:18.344Z,63.90
2023-03-06T20:46:22.490Z,64.02
2023-03-06T20:48:24.975Z,63.74
2023-03-06T20:50:28.173Z,64.29
2023-03-06T20:52:30.943Z,64.01
2023-03-06T20:54:33.621Z,63.51
2023-03-06T20:56:39.971Z,63.76
2023-03-06T20:58:42.961Z,63.83
2023-03-06T21:00:45.559Z,63.61
2023-03-06T21:02:48.563Z,63.76
2023-03-06T21:04:51.144Z,64.38
2023-03-06T21:06:54.834Z,64.25
2023-03-06T21:08:59.223Z,64.29
2023-03-06T21:11:01.620Z,63.63
2023-03-06T21:13:04.166Z,63.93
2023-03-06T21:15:07.298Z,64.08
2023-03-06T21:17:09.751Z,63.92
2023-03-06T21:19:12.936Z,64.22
2023-03-06T21:21:18.793Z,64.45
2023-03-06T21:23:21.248Z,64.47
2023-03-06T21:25:24.011Z,64.11
2023-03-06T21:27:26.620Z,63.99
2023-03-06T21:29:29.013Z,64.54
2023-03-06T21:31:33.760Z,64.60
2023-03-06T21:33:37.020Z,63.52
2023-03-06T21:35:46.308Z,64.59
2023-03-06T21:37:49.114Z,65.04
2023-03-06T21:39:51.868Z,64.82
2023-03-06T21:41:54.196Z,65.09
2023-03-06T21:43:59.220Z,65.86
2023-03-06T21:46:01.978Z,65.36
2023-03-06T21:48:04.909Z,65.09
2023-03-06T21:50:10.390Z,65.69
2023-03-06T21:52:12.998Z,65.75
2023-03-06T21:54:15.861Z,65.48
2023-03-06T21:56:21.355Z,66.14
2023-03-06T21:58:24.091Z,66.73
2023-03-06T22:00:26.621Z,66.40
2023-03-06T22:02:29.888Z,66.09
2023-03-06T22:04:32.461Z,65.89
2023-03-06T22:06:35.680Z,66.15
2023-03-06T22:08:38.209Z,65.60
2023-03-06T22:10:41.486Z,65.51
2023-03-06T22:12:46.161Z,65.76
2023-03-06T22:14:48.867Z,65.25
2023-03-06T22:16:52.117Z,65.46
2023-03-06T22:18:54.746Z,65.68
2023-03-06T22:20:57.376Z,66.38
2023-03-06T22:22:59.793Z,66.61
2023-03-06T22:25:02.406Z,67.37
2023-03-06T22:27:05.158Z,66.84
2023-03-06T22:29:07.684Z,66.86
2023-03-06T22:31:19.205Z,67.41
2023-03-06T22:33:21.549Z,67.41
2023-03-06T22:35:24.407Z,67.16
2023-03-06T22:37:27.163Z,67.84
2023-03-06T22:39:29.558Z,68.44
2023-03-06T22:41:32.367Z,67.93
2023-03-06T22:43:35.664Z,67.72
2023-03-06T22:45:38.382Z,67.69
2023-03-06T22:47:40.894Z,67.55
2023-03-06T22:49:43.266Z,67.26
2023-03-06T22:51:45.724Z,67.08
2023-03-06T22:53:49.410Z,67.85
2023-03-06T22:55:51.729Z,67.61
2023-03-06T22:57:54.733Z,67.04
2023-03-06T22:59:56.952Z,67.61
2023-03-06T23:01:59.546Z,67.69
2023-03-06T23:04:04.080Z,67.72
2023-03-06T23:06:13.140Z,66.90
2023-03-06T23:08:15.481Z,67.23
2023-03-06T23:10:19.622Z,66.80
2023-03-06T23:12:42.145Z,67.19
2023-03-06T23:15:03.404Z,67.12
2023-03-06T23:17:23.997Z,66.67
2023-03-06T23:19:44.976Z,66.72
2023-03-06T23:22:05.851Z,67.30
2023-03-06T23:24:26.802Z,67.43
2023-03-06T23:26:31.243Z,67.08
2023-03-06T23:28:35.253Z,67.04
2023-03-06T23:30:39.583Z,66.99
2023-03-06T23:32:43.772Z,67.02
2023-03-06T23:34:49.074Z,67.29
2023-03-06T23:36:51.958Z,66.25
2023-03-06T23:38:56.352Z,66.93
2023-03-06T23:41:07.471Z,66.44
2023-03-06T23:43:10.283Z,65.96
2023-03-06T23:45:12.768Z,66.58
2023-03-06T23:47:17.534Z,66.49
2023-03-06T23:49:21.890Z,66.25
2023-03-06T23:51:24.476Z,66.54
2023-03-06T23:53:27.062Z,67.63
2023-03-06T23:55:29.632Z,68.44
2023-03-06T23:57:32.113Z,67.97
2023-03-06T23:59:34.261Z,68.24
